createdAt,value
2018-12-19T00:01:28.736Z,-0.90
2018-12-19T00:03:55.096Z,-1.00
2018-12-19T00:06:21.508Z,-1.00
2018-12-19T00:08:48.604Z,-1.00
2018-12-19T00:11:14.871Z,-1.10
2018-12-19T00:13:41.548Z,-1.10
2018-12-19T00:16:07.848Z,-0.80
2018-12-19T00:18:34.161Z,-1.00
2018-12-19T00:21:00.854Z,-1.00
2018-12-19T00:23:27.232Z,-0.90
2018-12-19T00:25:53.501Z,-1.10
2018-12-19T00:28:20.156Z,-1.20
2018-12-19T00:30:46.456Z,-1.30
2018-12-19T00:33:12.745Z,-1.10
2018-12-19T00:35:39.136Z,-1.10
2018-12-19T00:38:05.399Z,-1.20
2018-12-19T00:40:31.680Z,-1.20
2018-12-19T00:42:58.452Z,-1.20
2018-12-19T00:45:24.737Z,-1.30
2018-12-19T00:47:51.008Z,-1.30
2018-12-19T00:50:17.753Z,-1.20
2018-12-19T00:52:44.044Z,-1.20
2018-12-19T00:55:10.329Z,-1.10
2018-12-19T00:57:37.061Z,-1.10
2018-12-19T01:00:04.780Z,-1.10
2018-12-19T01:02:31.053Z,-1.10
2018-12-19T01:04:57.496Z,-1.10
2018-12-19T01:07:23.777Z,-0.80
2018-12-19T01:09:50.077Z,-0.90
2018-12-19T01:12:16.501Z,-0.80
2018-12-19T01:14:42.932Z,-0.90
2018-12-19T01:17:09.204Z,-0.70
2018-12-19T01:19:35.616Z,-0.70
2018-12-19T01:22:01.906Z,-0.70
2018-12-19T01:24:28.251Z,-0.50
2018-12-19T01:26:54.774Z,-0.60
2018-12-19T01:29:21.050Z,-0.70
2018-12-19T01:31:47.322Z,-1.20
2018-12-19T01:34:13.890Z,-0.40
2018-12-19T01:36:40.166Z,-0.50
2018-12-19T01:39:06.568Z,-0.30
2018-12-19T01:41:33.174Z,-0.30
2018-12-19T01:43:59.440Z,-0.40
2018-12-19T01:46:25.736Z,-0.40
2018-12-19T01:48:52.022Z,-0.20
2018-12-19T01:51:18.660Z,-0.30
2018-12-19T01:53:44.972Z,-0.20
2018-12-19T01:56:11.280Z,-0.20
2018-12-19T01:58:37.579Z,-0.30
2018-12-19T02:01:03.888Z,-0.20
2018-12-19T02:03:30.461Z,-0.10
2018-12-19T02:05:56.736Z,-0.20
2018-12-19T02:08:23.016Z,-0.10
2018-12-19T02:10:49.297Z,-0.10
2018-12-19T02:13:15.573Z,-0.10
2018-12-19T02:15:41.857Z,0.00
2018-12-19T02:18:08.453Z,-0.10
2018-12-19T02:20:34.740Z,-0.20
2018-12-19T02:23:01.040Z,-0.30
2018-12-19T02:25:27.389Z,0.10
2018-12-19T02:27:53.663Z,-0.20
2018-12-19T02:30:19.945Z,0.00
2018-12-19T02:32:46.376Z,0.00
2018-12-19T02:35:12.790Z,0.00
2018-12-19T02:37:39.065Z,0.30
2018-12-19T02:40:05.501Z,0.10
2018-12-19T02:42:31.770Z,0.00
2018-12-19T02:44:58.172Z,0.30
2018-12-19T02:47:24.436Z,0.00
2018-12-19T02:49:50.689Z,0.10
2018-12-19T02:52:16.985Z,0.10
2018-12-19T02:54:43.724Z,-0.40
2018-12-19T02:57:10.016Z,0.10
2018-12-19T02:59:36.320Z,0.10
2018-12-19T03:02:03.017Z,0.20
2018-12-19T03:04:29.288Z,0.30
2018-12-19T03:06:55.572Z,0.20
2018-12-19T03:09:22.340Z,0.20
2018-12-19T03:11:48.623Z,0.30
2018-12-19T03:14:14.900Z,0.00
2018-12-19T03:16:41.639Z,0.30
2018-12-19T03:19:08.270Z,0.30
2018-12-19T03:21:34.532Z,0.40
2018-12-19T03:24:01.239Z,0.40
2018-12-19T03:26:27.577Z,0.60
2018-12-19T03:28:53.846Z,0.40
2018-12-19T03:31:20.549Z,0.50
2018-12-19T03:33:46.842Z,0.10
2018-12-19T03:36:13.161Z,0.40
2018-12-19T03:38:39.541Z,0.50
2018-12-19T03:41:05.815Z,0.50
2018-12-19T03:43:32.155Z,0.50
2018-12-19T03:45:58.854Z,0.70
2018-12-19T03:48:31.313Z,0.50
2018-12-19T03:50:57.849Z,0.80
2018-12-19T03:53:24.112Z,0.50
2018-12-19T03:55:50.402Z,0.50
2018-12-19T03:58:16.684Z,0.50
2018-12-19T04:00:43.019Z,0.80
2018-12-19T04:03:09.377Z,0.60
2018-12-19T04:05:35.708Z,0.60
2018-12-19T04:08:02.318Z,0.70
2018-12-19T04:10:28.589Z,0.70
2018-12-19T04:12:54.854Z,0.70
2018-12-19T04:15:21.236Z,0.70
2018-12-19T04:17:47.674Z,0.70
2018-12-19T04:20:13.996Z,0.70
2018-12-19T04:22:40.400Z,0.80
2018-12-19T04:25:06.666Z,0.70
2018-12-19T04:27:32.993Z,0.80
2018-12-19T04:29:59.414Z,1.00
2018-12-19T04:32:26.208Z,0.80
2018-12-19T04:34:52.469Z,0.90
2018-12-19T04:37:18.792Z,1.00
2018-12-19T04:39:45.598Z,1.00
2018-12-19T04:42:12.962Z,0.90
2018-12-19T04:44:39.324Z,0.90
2018-12-19T04:47:05.588Z,1.10
2018-12-19T04:49:31.984Z,0.90
2018-12-19T04:51:58.468Z,1.00
2018-12-19T04:54:24.788Z,1.10
2018-12-19T04:56:51.129Z,1.10
2018-12-19T04:59:17.701Z,1.10
2018-12-19T05:01:43.988Z,1.10
2018-12-19T05:04:10.276Z,1.10
2018-12-19T05:06:36.665Z,1.10
2018-12-19T05:09:05.415Z,1.40
2018-12-19T05:11:31.763Z,1.20
2018-12-19T05:13:58.473Z,1.20
2018-12-19T05:16:24.825Z,1.20
2018-12-19T05:18:51.109Z,1.40
2018-12-19T05:21:17.544Z,1.30
2018-12-19T05:23:50.648Z,1.20
2018-12-19T05:26:16.926Z,1.20
2018-12-19T05:28:43.356Z,1.40
2018-12-19T05:31:09.711Z,1.30
2018-12-19T05:33:35.996Z,1.30
2018-12-19T05:36:02.570Z,1.40
2018-12-19T05:38:28.880Z,1.40
2018-12-19T05:40:55.152Z,1.60
2018-12-19T05:43:21.820Z,0.90
2018-12-19T05:45:48.080Z,1.40
2018-12-19T05:48:14.351Z,1.40
2018-12-19T05:50:40.740Z,1.40
2018-12-19T05:53:07.000Z,1.60
2018-12-19T05:55:33.272Z,1.50
2018-12-19T05:57:59.722Z,1.50
2018-12-19T06:00:25.989Z,1.50
2018-12-19T06:02:52.275Z,1.50
2018-12-19T06:05:18.586Z,1.50
2018-12-19T06:07:44.900Z,1.50
2018-12-19T06:10:11.168Z,1.50
2018-12-19T06:12:37.564Z,1.70
2018-12-19T06:15:04.081Z,1.60
2018-12-19T06:17:30.368Z,1.70
2018-12-19T06:19:56.704Z,1.60
2018-12-19T06:22:22.964Z,1.60
2018-12-19T06:24:49.279Z,1.70
2018-12-19T06:27:15.661Z,1.60
2018-12-19T06:29:41.997Z,1.60
2018-12-19T06:32:08.292Z,1.60
2018-12-19T06:34:34.697Z,1.80
2018-12-19T06:37:00.989Z,1.70
2018-12-19T06:39:27.414Z,1.70
2018-12-19T06:41:53.852Z,1.70
2018-12-19T06:44:20.150Z,1.60
2018-12-19T06:46:46.540Z,1.70
2018-12-19T06:49:12.823Z,1.70
2018-12-19T06:51:39.129Z,1.90
2018-12-19T06:54:05.398Z,1.80
2018-12-19T06:56:31.680Z,2.00
2018-12-19T06:58:57.953Z,1.90
2018-12-19T07:01:24.248Z,1.80
2018-12-19T07:03:50.552Z,1.90
2018-12-19T07:06:16.832Z,1.80
2018-12-19T07:08:43.286Z,1.90
2018-12-19T07:11:09.668Z,1.90
2018-12-19T07:13:36.521Z,2.20
2018-12-19T07:16:02.889Z,1.80
2018-12-19T07:18:29.166Z,1.90
2018-12-19T07:20:56.381Z,2.00
2018-12-19T07:23:22.704Z,1.60
2018-12-19T07:25:49.261Z,2.00
2018-12-19T07:28:15.548Z,1.90
2018-12-19T07:30:41.889Z,2.10
2018-12-19T07:33:08.565Z,1.80
2018-12-19T07:35:34.837Z,1.90
2018-12-19T07:38:01.114Z,2.00
2018-12-19T07:40:27.573Z,1.50
2018-12-19T07:42:53.848Z,2.00
2018-12-19T07:45:20.132Z,2.00
2018-12-19T07:47:46.500Z,2.00
2018-12-19T07:50:12.786Z,2.10
2018-12-19T07:52:39.059Z,2.10
2018-12-19T07:55:05.851Z,2.10
2018-12-19T07:57:32.132Z,2.10
2018-12-19T07:59:58.474Z,2.20
2018-12-19T08:02:24.781Z,2.20
2018-12-19T08:04:52.132Z,2.20
2018-12-19T08:07:18.416Z,2.40
2018-12-19T08:09:44.714Z,2.20
2018-12-19T08:12:10.982Z,2.40
2018-12-19T08:14:37.261Z,2.30
2018-12-19T08:17:03.776Z,2.30
2018-12-19T08:19:30.069Z,2.40
2018-12-19T08:21:56.333Z,2.40
2018-12-19T08:24:22.608Z,2.40
2018-12-19T08:26:48.864Z,2.70
2018-12-19T08:29:15.128Z,2.50
2018-12-19T08:31:42.053Z,2.70
2018-12-19T08:34:08.574Z,2.50
2018-12-19T08:36:34.849Z,2.50
2018-12-19T08:39:01.484Z,2.50
2018-12-19T08:41:27.786Z,2.60
2018-12-19T08:43:54.117Z,2.60
2018-12-19T08:46:20.500Z,2.60
2018-12-19T08:48:46.792Z,2.50
2018-12-19T08:51:13.132Z,2.70
2018-12-19T08:53:39.441Z,2.60
2018-12-19T08:56:05.716Z,2.70
2018-12-19T08:58:31.994Z,3.00
2018-12-19T09:00:58.285Z,2.80
2018-12-19T09:03:24.575Z,2.80
2018-12-19T09:05:50.872Z,2.70
2018-12-19T09:08:17.252Z,2.70
2018-12-19T09:10:43.569Z,2.60
2018-12-19T09:13:09.888Z,2.80
2018-12-19T09:15:42.472Z,2.70
2018-12-19T09:18:08.756Z,2.80
2018-12-19T09:20:35.045Z,2.60
2018-12-19T09:23:01.330Z,2.60
2018-12-19T09:25:27.649Z,2.50
2018-12-19T09:27:53.936Z,2.60
2018-12-19T09:30:20.356Z,2.60
2018-12-19T09:32:46.721Z,2.20
2018-12-19T09:35:13.028Z,2.60
2018-12-19T09:37:39.504Z,2.60
2018-12-19T09:40:05.951Z,2.60
2018-12-19T09:42:32.220Z,2.60
2018-12-19T09:44:58.502Z,2.80
2018-12-19T09:47:24.895Z,2.60
2018-12-19T09:49:51.175Z,2.60
2018-12-19T09:52:17.452Z,2.50
2018-12-19T09:54:43.725Z,2.70
2018-12-19T09:57:10.020Z,2.70
2018-12-19T09:59:36.334Z,2.80
2018-12-19T10:02:02.855Z,2.70
2018-12-19T10:04:29.126Z,2.80
2018-12-19T10:06:55.410Z,2.70
2018-12-19T10:09:22.073Z,2.70
2018-12-19T10:11:48.360Z,2.70
2018-12-19T10:14:14.688Z,2.90
2018-12-19T10:16:40.957Z,2.80
2018-12-19T10:19:07.260Z,2.80
2018-12-19T10:21:34.038Z,2.80
2018-12-19T10:24:00.336Z,2.80
2018-12-19T10:28:59.787Z,2.90
2018-12-19T10:31:26.075Z,2.90
2018-12-19T10:33:52.412Z,2.90
2018-12-19T10:36:20.965Z,3.00
2018-12-19T10:38:47.280Z,2.90
2018-12-19T10:41:13.669Z,2.90
2018-12-19T10:43:41.729Z,2.90
2018-12-19T10:46:08.392Z,3.20
2018-12-19T10:48:35.288Z,2.90
2018-12-19T10:51:01.708Z,2.80
2018-12-19T10:53:34.785Z,2.90
2018-12-19T10:56:01.372Z,2.90
2018-12-19T10:58:28.052Z,2.90
2018-12-19T11:00:59.160Z,2.90
2018-12-19T11:03:25.450Z,2.50
2018-12-19T11:05:54.420Z,3.00
2018-12-19T11:08:20.314Z,3.00
2018-12-19T11:10:46.579Z,3.00
2018-12-19T11:13:13.121Z,3.20
2018-12-19T11:15:39.408Z,2.90
2018-12-19T11:18:05.737Z,3.10
2018-12-19T11:20:32.410Z,3.20
2018-12-19T11:22:58.785Z,3.10
2018-12-19T11:25:25.097Z,3.20
2018-12-19T11:27:51.713Z,3.10
2018-12-19T11:30:18.001Z,3.10
2018-12-19T11:32:44.484Z,3.10
2018-12-19T11:35:11.044Z,3.10
2018-12-19T11:37:38.250Z,3.20
2018-12-19T11:40:06.812Z,3.20
2018-12-19T11:42:33.471Z,3.10
2018-12-19T11:44:59.754Z,3.10
2018-12-19T11:47:26.112Z,3.00
2018-12-19T11:49:52.403Z,3.20
2018-12-19T11:52:18.799Z,3.10
2018-12-19T11:54:45.072Z,3.10
2018-12-19T11:57:11.483Z,3.20
2018-12-19T11:59:37.764Z,3.40
2018-12-19T12:02:04.061Z,3.20
2018-12-19T12:04:30.355Z,3.40
2018-12-19T12:06:56.671Z,3.10
2018-12-19T12:09:22.972Z,3.20
2018-12-19T12:11:49.309Z,3.30
2018-12-19T12:14:15.596Z,3.20
2018-12-19T12:16:41.940Z,3.20
2018-12-19T12:19:08.666Z,3.40
2018-12-19T12:21:34.986Z,3.20
2018-12-19T12:24:01.385Z,3.40
2018-12-19T12:26:28.000Z,3.20
2018-12-19T12:28:54.601Z,3.30
2018-12-19T12:31:20.893Z,3.10
2018-12-19T12:33:47.581Z,3.20
2018-12-19T12:36:14.070Z,3.20
2018-12-19T12:38:40.369Z,3.20
2018-12-19T12:41:07.108Z,3.10
2018-12-19T12:43:33.387Z,3.20
2018-12-19T12:45:59.668Z,3.20
2018-12-19T12:48:33.144Z,3.20
2018-12-19T12:50:59.425Z,2.70
2018-12-19T12:53:25.720Z,3.20
2018-12-19T12:55:52.236Z,3.30
2018-12-19T12:58:18.525Z,2.60
2018-12-19T13:00:45.153Z,3.30
2018-12-19T13:03:11.588Z,3.30
2018-12-19T13:05:37.872Z,3.30
2018-12-19T13:08:04.172Z,3.30
2018-12-19T13:10:36.141Z,3.30
2018-12-19T13:12:58.980Z,3.30
2018-12-19T13:15:31.437Z,3.40
2018-12-19T13:17:58.439Z,3.40
2018-12-19T13:20:24.721Z,3.60
2018-12-19T13:22:50.990Z,3.60
2018-12-19T13:25:17.737Z,3.60
2018-12-19T13:27:44.041Z,3.50
2018-12-19T13:30:10.325Z,3.50
2018-12-19T13:32:36.736Z,3.50
2018-12-19T13:35:03.468Z,3.50
2018-12-19T13:37:29.751Z,3.50
2018-12-19T13:39:56.148Z,3.50
2018-12-19T13:42:22.460Z,3.40
2018-12-19T13:44:48.720Z,3.40
2018-12-19T13:47:15.338Z,3.30
2018-12-19T13:49:41.608Z,3.40
2018-12-19T13:52:08.069Z,3.60
2018-12-19T13:54:34.649Z,3.40
2018-12-19T13:57:00.956Z,3.40
2018-12-19T13:59:27.225Z,3.40
2018-12-19T14:01:53.947Z,3.30
2018-12-19T14:04:20.366Z,3.30
2018-12-19T14:06:46.664Z,3.30
2018-12-19T14:09:12.966Z,3.30
2018-12-19T14:11:39.241Z,3.30
2018-12-19T14:14:05.517Z,3.30
2018-12-19T14:16:31.814Z,3.30
2018-12-19T14:18:58.268Z,3.40
2018-12-19T14:21:24.538Z,3.30
2018-12-19T14:23:51.024Z,3.20
2018-12-19T14:26:17.282Z,3.20
2018-12-19T14:28:43.556Z,3.40
2018-12-19T14:31:09.931Z,3.30
2018-12-19T14:33:36.208Z,3.30
2018-12-19T14:36:02.492Z,3.40
2018-12-19T14:38:28.949Z,3.30
2018-12-19T14:40:55.300Z,3.30
2018-12-19T14:43:21.673Z,3.30
2018-12-19T14:45:48.216Z,3.50
2018-12-19T14:48:14.481Z,3.30
2018-12-19T14:50:40.744Z,3.20
2018-12-19T14:53:07.157Z,3.40
2018-12-19T14:55:33.433Z,3.20
2018-12-19T14:57:59.734Z,3.20
2018-12-19T15:00:26.004Z,3.30
2018-12-19T15:02:52.295Z,3.20
2018-12-19T15:05:18.632Z,3.30
2018-12-19T15:07:45.097Z,3.30
2018-12-19T15:10:11.377Z,3.40
2018-12-19T15:12:37.666Z,3.30
2018-12-19T15:15:06.652Z,3.10
2018-12-19T15:17:32.956Z,3.40
2018-12-19T15:19:59.251Z,3.30
2018-12-19T15:22:26.012Z,3.30
2018-12-19T15:24:52.296Z,3.30
2018-12-19T15:27:18.576Z,3.30
2018-12-19T15:29:45.106Z,3.30
2018-12-19T15:32:11.393Z,3.30
2018-12-19T15:34:37.693Z,3.30
2018-12-19T15:37:04.249Z,3.30
2018-12-19T15:39:30.533Z,3.30
2018-12-19T15:41:56.812Z,3.30
2018-12-19T15:44:23.550Z,3.60
2018-12-19T15:46:49.829Z,3.50
2018-12-19T15:49:16.143Z,3.40
2018-12-19T15:51:42.541Z,3.30
2018-12-19T15:54:08.852Z,3.30
2018-12-19T15:56:35.240Z,3.40
2018-12-19T15:59:08.636Z,3.30
2018-12-19T16:01:34.941Z,3.20
2018-12-19T16:04:01.216Z,3.30
2018-12-19T16:06:27.906Z,3.30
2018-12-19T16:08:54.205Z,3.30
2018-12-19T16:11:20.497Z,3.50
2018-12-19T16:13:46.988Z,3.60
2018-12-19T16:16:13.404Z,3.40
2018-12-19T16:18:39.737Z,3.40
2018-12-19T16:21:06.512Z,3.40
2018-12-19T16:23:33.191Z,3.40
2018-12-19T16:26:00.414Z,3.40
2018-12-19T16:28:27.060Z,3.40
2018-12-19T16:30:53.348Z,3.50
2018-12-19T16:33:19.677Z,3.50
2018-12-19T16:35:46.101Z,3.40
2018-12-19T16:38:12.384Z,3.10
2018-12-19T16:40:38.677Z,3.60
2018-12-19T16:43:05.124Z,3.50
2018-12-19T16:45:31.478Z,3.40
2018-12-19T16:47:57.759Z,3.50
2018-12-19T16:50:24.348Z,3.60
2018-12-19T16:52:50.641Z,3.30
2018-12-19T16:55:17.037Z,3.40
2018-12-19T16:57:43.969Z,3.30
2018-12-19T17:00:10.548Z,3.30
2018-12-19T17:02:36.848Z,3.50
2018-12-19T17:05:04.862Z,3.40
2018-12-19T17:07:31.159Z,3.30
2018-12-19T17:09:57.426Z,3.30
2018-12-19T17:12:24.108Z,3.30
2018-12-19T17:14:50.396Z,3.40
2018-12-19T17:17:16.722Z,3.30
2018-12-19T17:19:43.196Z,3.30
2018-12-19T17:22:09.475Z,3.30
2018-12-19T17:24:38.794Z,3.60
2018-12-19T17:27:05.186Z,3.60
2018-12-19T17:29:31.478Z,3.60
2018-12-19T17:31:58.097Z,3.50
2018-12-19T17:34:24.459Z,3.30
2018-12-19T17:36:50.741Z,3.80
2018-12-19T17:39:17.032Z,3.60
2018-12-19T17:41:43.336Z,3.60
2018-12-19T17:44:09.644Z,3.50
2018-12-19T17:46:35.938Z,3.50
2018-12-19T17:49:02.467Z,3.50
2018-12-19T17:51:28.792Z,3.50
2018-12-19T17:53:55.083Z,3.50
2018-12-19T17:56:21.728Z,3.20
2018-12-19T17:58:48.222Z,3.70
2018-12-19T18:01:14.525Z,3.80
2018-12-19T18:03:41.036Z,3.60
2018-12-19T18:06:07.341Z,3.50
2018-12-19T18:08:33.614Z,3.60
2018-12-19T18:11:00.336Z,3.60
2018-12-19T18:13:26.697Z,3.60
2018-12-19T18:15:52.956Z,3.40
2018-12-19T18:18:26.127Z,3.60
2018-12-19T18:20:52.422Z,3.80
2018-12-19T18:23:18.726Z,3.60
2018-12-19T18:25:45.020Z,3.80
2018-12-19T18:28:11.503Z,3.60
2018-12-19T18:30:37.805Z,3.60
2018-12-19T18:33:04.183Z,3.70
2018-12-19T18:35:30.469Z,3.60
2018-12-19T18:37:56.756Z,3.50
2018-12-19T18:40:23.532Z,3.70
2018-12-19T18:42:49.826Z,3.60
2018-12-19T18:45:16.109Z,3.70
2018-12-19T18:47:42.389Z,3.80
2018-12-19T18:50:08.686Z,3.70
2018-12-19T18:52:35.012Z,3.40
2018-12-19T18:55:01.492Z,3.80
2018-12-19T18:57:27.788Z,3.80
2018-12-19T18:59:54.121Z,3.80
2018-12-19T19:02:20.446Z,3.70
2018-12-19T19:04:46.776Z,3.70
2018-12-19T19:07:13.241Z,3.60
2018-12-19T19:09:39.970Z,3.60
2018-12-19T19:12:06.272Z,3.60
2018-12-19T19:14:32.561Z,3.80
2018-12-19T19:16:59.081Z,3.70
2018-12-19T19:19:25.357Z,3.50
2018-12-19T19:21:51.666Z,3.60
2018-12-19T19:24:17.936Z,3.50
2018-12-19T19:26:44.216Z,3.50
2018-12-19T19:29:10.654Z,3.60
2018-12-19T19:31:37.009Z,3.50
2018-12-19T19:34:03.349Z,3.60
2018-12-19T19:36:29.871Z,3.60
2018-12-19T19:38:56.269Z,3.50
2018-12-19T19:41:23.585Z,3.60
2018-12-19T19:43:49.885Z,3.50
2018-12-19T19:46:16.241Z,3.50
2018-12-19T19:48:42.640Z,3.60
2018-12-19T19:51:08.950Z,3.10
2018-12-19T19:53:35.487Z,3.60
2018-12-19T19:56:01.766Z,3.60
2018-12-19T19:58:28.100Z,3.60
2018-12-19T20:00:54.403Z,3.60
2018-12-19T20:03:20.712Z,3.50
2018-12-19T20:05:46.992Z,3.70
2018-12-19T20:08:13.772Z,3.60
2018-12-19T20:10:40.045Z,3.50
2018-12-19T20:13:07.212Z,3.50
2018-12-19T20:15:33.653Z,3.50
2018-12-19T20:17:59.928Z,3.70
2018-12-19T20:20:26.216Z,3.60
2018-12-19T20:22:52.692Z,3.60
2018-12-19T20:25:19.012Z,3.50
2018-12-19T20:27:45.288Z,3.60
2018-12-19T20:30:11.809Z,3.60
2018-12-19T20:32:38.114Z,3.60
2018-12-19T20:35:04.581Z,3.80
2018-12-19T20:37:31.020Z,3.80
2018-12-19T20:39:57.346Z,3.60
2018-12-19T20:42:23.661Z,3.80
2018-12-19T20:44:50.100Z,3.70
2018-12-19T20:47:16.406Z,3.70
2018-12-19T20:49:42.700Z,3.70
2018-12-19T20:52:09.274Z,3.70
2018-12-19T20:54:35.541Z,3.60
2018-12-19T20:57:01.840Z,3.90
2018-12-19T20:59:28.579Z,3.70
2018-12-19T21:01:55.072Z,3.70
2018-12-19T21:04:21.370Z,3.80
2018-12-19T21:06:48.183Z,3.60
2018-12-19T21:09:15.585Z,3.70
2018-12-19T21:11:42.188Z,3.40
2018-12-19T21:14:08.725Z,3.70
2018-12-19T21:16:42.038Z,3.60
2018-12-19T21:19:08.324Z,3.90
2018-12-19T21:21:34.781Z,3.80
2018-12-19T21:24:01.218Z,3.70
2018-12-19T21:26:27.500Z,3.40
2018-12-19T21:28:54.169Z,3.70
2018-12-19T21:31:20.464Z,3.80
2018-12-19T21:33:46.817Z,3.80
2018-12-19T21:36:13.381Z,4.00
2018-12-19T21:38:39.669Z,3.80
2018-12-19T21:41:05.948Z,3.90
2018-12-19T21:43:32.389Z,3.90
2018-12-19T21:45:58.679Z,3.80
2018-12-19T21:48:25.057Z,3.80
2018-12-19T21:50:51.544Z,3.90
2018-12-19T21:53:24.949Z,3.80
2018-12-19T21:55:51.309Z,4.00
2018-12-19T21:58:17.696Z,3.80
2018-12-19T22:00:43.985Z,3.60
2018-12-19T22:03:10.271Z,3.30
2018-12-19T22:05:37.054Z,3.80
2018-12-19T22:08:03.393Z,3.80
2018-12-19T22:10:29.684Z,3.70
2018-12-19T22:12:56.176Z,3.70
2018-12-19T22:15:22.693Z,3.80
2018-12-19T22:17:51.169Z,3.70
2018-12-19T22:20:17.872Z,3.70
2018-12-19T22:22:44.460Z,3.70
2018-12-19T22:25:10.764Z,3.70
2018-12-19T22:27:37.234Z,3.70
2018-12-19T22:30:06.081Z,3.70
2018-12-19T22:32:32.539Z,3.70
2018-12-19T22:35:06.222Z,4.00
2018-12-19T22:37:32.522Z,3.80
2018-12-19T22:39:58.864Z,3.70
2018-12-19T22:42:25.377Z,3.70
2018-12-19T22:44:51.768Z,3.70
2018-12-19T22:47:18.060Z,3.70
2018-12-19T22:49:44.444Z,3.70
2018-12-19T22:52:10.773Z,3.70
2018-12-19T22:54:37.193Z,3.60
2018-12-19T22:57:03.708Z,3.10
2018-12-19T22:59:30.053Z,3.60
2018-12-19T23:02:02.581Z,3.50
2018-12-19T23:04:29.035Z,3.60
2018-12-19T23:06:55.414Z,3.70
2018-12-19T23:09:21.694Z,3.50
2018-12-19T23:11:48.284Z,3.70
2018-12-19T23:14:15.477Z,3.80
2018-12-19T23:16:42.276Z,3.50
2018-12-19T23:19:08.816Z,3.50
2018-12-19T23:21:35.185Z,3.50
2018-12-19T23:24:01.512Z,3.60
2018-12-19T23:26:27.965Z,3.50
2018-12-19T23:28:56.364Z,3.50
2018-12-19T23:31:22.684Z,3.60
2018-12-19T23:33:49.164Z,3.60
2018-12-19T23:36:15.518Z,3.60
2018-12-19T23:38:41.900Z,3.60
2018-12-19T23:41:08.340Z,3.60
2018-12-19T23:43:34.753Z,3.60
2018-12-19T23:46:01.268Z,3.60
2018-12-19T23:48:27.836Z,3.60
2018-12-19T23:50:54.256Z,3.60
2018-12-19T23:53:20.631Z,3.60
2018-12-19T23:55:47.103Z,3.60
2018-12-19T23:58:13.376Z,3.60
